sensor_id;sensor_type;location;lat;lon;timestamp;P1;durP1;ratioP1;P2;durP2;ratioP2
67965;SDS011;54749;47.850;9.002;2023-06-14T00:01:36;6.97;;;2.87;;
67965;SDS011;54749;47.850;9.002;2023-06-14T00:04:05;9.00;;;3.13;;
67965;SDS011;54749;47.850;9.002;2023-06-14T00:06:32;6.32;;;2.78;;
67965;SDS011;54749;47.850;9.002;2023-06-14T00:09:00;6.15;;;2.80;;
67965;SDS011;54749;47.850;9.002;2023-06-14T00:11:27;5.90;;;3.05;;
67965;SDS011;54749;47.850;9.002;2023-06-14T00:13:57;5.50;;;2.50;;
67965;SDS011;54749;47.850;9.002;2023-06-14T00:16:24;6.65;;;3.00;;
67965;SDS011;54749;47.850;9.002;2023-06-14T00:18:51;7.20;;;2.80;;
67965;SDS011;54749;47.850;9.002;2023-06-14T00:21:19;5.82;;;2.72;;
67965;SDS011;54749;47.850;9.002;2023-06-14T00:23:46;5.57;;;2.88;;
67965;SDS011;54749;47.850;9.002;2023-06-14T00:26:13;7.23;;;2.90;;
67965;SDS011;54749;47.850;9.002;2023-06-14T00:28:43;7.38;;;2.80;;
67965;SDS011;54749;47.850;9.002;2023-06-14T00:31:10;7.15;;;2.80;;
67965;SDS011;54749;47.850;9.002;2023-06-14T00:33:37;5.70;;;2.80;;
67965;SDS011;54749;47.850;9.002;2023-06-14T00:36:05;7.47;;;2.90;;
67965;SDS011;54749;47.850;9.002;2023-06-14T00:38:32;6.10;;;2.73;;
67965;SDS011;54749;47.850;9.002;2023-06-14T00:41:00;6.05;;;2.85;;
67965;SDS011;54749;47.850;9.002;2023-06-14T00:43:28;6.70;;;2.78;;
67965;SDS011;54749;47.850;9.002;2023-06-14T00:45:55;6.30;;;3.05;;
67965;SDS011;54749;47.850;9.002;2023-06-14T00:48:22;8.68;;;3.92;;
67965;SDS011;54749;47.850;9.002;2023-06-14T00:50:50;9.43;;;4.10;;
67965;SDS011;54749;47.850;9.002;2023-06-14T00:53:20;10.07;;;4.70;;
67965;SDS011;54749;47.850;9.002;2023-06-14T00:55:50;8.45;;;4.30;;
67965;SDS011;54749;47.850;9.002;2023-06-14T00:58:17;9.05;;;4.20;;
67965;SDS011;54749;47.850;9.002;2023-06-14T01:00:48;8.75;;;3.92;;
67965;SDS011;54749;47.850;9.002;2023-06-14T01:03:15;7.13;;;3.50;;
67965;SDS011;54749;47.850;9.002;2023-06-14T01:05:50;7.15;;;3.42;;
67965;SDS011;54749;47.850;9.002;2023-06-14T01:08:36;7.43;;;3.50;;
67965;SDS011;54749;47.850;9.002;2023-06-14T01:11:26;6.47;;;3.05;;
67965;SDS011;54749;47.850;9.002;2023-06-14T01:13:58;7.13;;;2.92;;
67965;SDS011;54749;47.850;9.002;2023-06-14T01:16:29;8.50;;;2.93;;
67965;SDS011;54749;47.850;9.002;2023-06-14T01:18:58;6.07;;;2.90;;
67965;SDS011;54749;47.850;9.002;2023-06-14T01:21:25;7.78;;;3.58;;
67965;SDS011;54749;47.850;9.002;2023-06-14T01:23:53;5.90;;;2.92;;
67965;SDS011;54749;47.850;9.002;2023-06-14T01:26:21;7.63;;;4.07;;
67965;SDS011;54749;47.850;9.002;2023-06-14T01:28:51;9.77;;;4.40;;
67965;SDS011;54749;47.850;9.002;2023-06-14T01:31:25;7.45;;;4.00;;
67965;SDS011;54749;47.850;9.002;2023-06-14T01:33:53;7.97;;;4.05;;
67965;SDS011;54749;47.850;9.002;2023-06-14T01:36:22;8.65;;;4.05;;
67965;SDS011;54749;47.850;9.002;2023-06-14T01:38:57;10.63;;;3.95;;
67965;SDS011;54749;47.850;9.002;2023-06-14T01:41:26;6.90;;;3.50;;
67965;SDS011;54749;47.850;9.002;2023-06-14T01:43:55;8.68;;;4.10;;
67965;SDS011;54749;47.850;9.002;2023-06-14T01:46:25;8.75;;;4.10;;
67965;SDS011;54749;47.850;9.002;2023-06-14T01:48:53;9.50;;;3.72;;
67965;SDS011;54749;47.850;9.002;2023-06-14T01:51:20;9.63;;;4.30;;
67965;SDS011;54749;47.850;9.002;2023-06-14T01:53:48;9.67;;;4.00;;
67965;SDS011;54749;47.850;9.002;2023-06-14T01:56:15;7.13;;;3.50;;
67965;SDS011;54749;47.850;9.002;2023-06-14T01:58:43;10.85;;;4.70;;
67965;SDS011;54749;47.850;9.002;2023-06-14T02:01:10;8.68;;;3.90;;
67965;SDS011;54749;47.850;9.002;2023-06-14T02:03:39;9.48;;;3.80;;
67965;SDS011;54749;47.850;9.002;2023-06-14T02:06:06;9.17;;;4.40;;
67965;SDS011;54749;47.850;9.002;2023-06-14T02:08:34;6.72;;;3.50;;
67965;SDS011;54749;47.850;9.002;2023-06-14T02:11:01;11.40;;;4.10;;
67965;SDS011;54749;47.850;9.002;2023-06-14T02:13:29;9.40;;;4.00;;
67965;SDS011;54749;47.850;9.002;2023-06-14T02:15:56;7.72;;;3.83;;
67965;SDS011;54749;47.850;9.002;2023-06-14T02:18:24;7.43;;;3.40;;
67965;SDS011;54749;47.850;9.002;2023-06-14T02:20:52;8.70;;;3.63;;
67965;SDS011;54749;47.850;9.002;2023-06-14T02:23:19;8.02;;;4.00;;
67965;SDS011;54749;47.850;9.002;2023-06-14T02:25:46;7.68;;;3.40;;
67965;SDS011;54749;47.850;9.002;2023-06-14T02:28:13;8.95;;;3.92;;
67965;SDS011;54749;47.850;9.002;2023-06-14T02:30:40;8.37;;;3.77;;
67965;SDS011;54749;47.850;9.002;2023-06-14T02:33:08;8.05;;;3.58;;
67965;SDS011;54749;47.850;9.002;2023-06-14T02:35:39;9.52;;;3.80;;
67965;SDS011;54749;47.850;9.002;2023-06-14T02:38:08;8.27;;;3.28;;
67965;SDS011;54749;47.850;9.002;2023-06-14T02:40:35;7.38;;;3.10;;
67965;SDS011;54749;47.850;9.002;2023-06-14T02:43:02;9.33;;;4.13;;
67965;SDS011;54749;47.850;9.002;2023-06-14T02:45:30;9.65;;;3.50;;
67965;SDS011;54749;47.850;9.002;2023-06-14T02:47:57;7.30;;;3.70;;
67965;SDS011;54749;47.850;9.002;2023-06-14T02:50:24;8.35;;;4.00;;
67965;SDS011;54749;47.850;9.002;2023-06-14T02:52:52;8.43;;;3.70;;
67965;SDS011;54749;47.850;9.002;2023-06-14T02:55:22;8.80;;;3.93;;
67965;SDS011;54749;47.850;9.002;2023-06-14T02:57:50;9.38;;;4.10;;
67965;SDS011;54749;47.850;9.002;2023-06-14T03:00:17;7.43;;;3.67;;
67965;SDS011;54749;47.850;9.002;2023-06-14T03:02:47;8.50;;;4.00;;
67965;SDS011;54749;47.850;9.002;2023-06-14T03:05:14;7.57;;;3.95;;
67965;SDS011;54749;47.850;9.002;2023-06-14T03:07:42;6.87;;;3.27;;
67965;SDS011;54749;47.850;9.002;2023-06-14T03:10:12;7.85;;;3.40;;
67965;SDS011;54749;47.850;9.002;2023-06-14T03:12:42;7.65;;;3.88;;
67965;SDS011;54749;47.850;9.002;2023-06-14T03:15:10;8.43;;;4.40;;
67965;SDS011;54749;47.850;9.002;2023-06-14T03:17:44;8.95;;;3.53;;
67965;SDS011;54749;47.850;9.002;2023-06-14T03:20:14;7.10;;;3.77;;
67965;SDS011;54749;47.850;9.002;2023-06-14T03:22:43;8.27;;;4.28;;
67965;SDS011;54749;47.850;9.002;2023-06-14T03:25:13;9.93;;;3.85;;
67965;SDS011;54749;47.850;9.002;2023-06-14T03:27:42;9.40;;;4.10;;
67965;SDS011;54749;47.850;9.002;2023-06-14T03:30:09;7.82;;;3.65;;
67965;SDS011;54749;47.850;9.002;2023-06-14T03:32:37;10.40;;;4.30;;
67965;SDS011;54749;47.850;9.002;2023-06-14T03:35:05;7.75;;;4.07;;
67965;SDS011;54749;47.850;9.002;2023-06-14T03:37:33;9.25;;;4.05;;
67965;SDS011;54749;47.850;9.002;2023-06-14T03:40:00;9.52;;;3.95;;
67965;SDS011;54749;47.850;9.002;2023-06-14T03:42:31;12.40;;;4.00;;
67965;SDS011;54749;47.850;9.002;2023-06-14T03:44:58;8.97;;;3.80;;
67965;SDS011;54749;47.850;9.002;2023-06-14T03:47:26;7.50;;;3.95;;
67965;SDS011;54749;47.850;9.002;2023-06-14T03:49:55;8.45;;;3.70;;
67965;SDS011;54749;47.850;9.002;2023-06-14T03:52:22;7.15;;;3.55;;
67965;SDS011;54749;47.850;9.002;2023-06-14T03:54:50;12.25;;;3.53;;
67965;SDS011;54749;47.850;9.002;2023-06-14T03:57:22;10.97;;;3.90;;
67965;SDS011;54749;47.850;9.002;2023-06-14T03:59:50;10.68;;;3.65;;
67965;SDS011;54749;47.850;9.002;2023-06-14T04:02:18;8.40;;;3.80;;
67965;SDS011;54749;47.850;9.002;2023-06-14T04:04:46;7.10;;;3.55;;
67965;SDS011;54749;47.850;9.002;2023-06-14T04:07:15;7.70;;;3.88;;
67965;SDS011;54749;47.850;9.002;2023-06-14T04:09:46;9.03;;;3.90;;
67965;SDS011;54749;47.850;9.002;2023-06-14T04:12:13;7.63;;;3.45;;
67965;SDS011;54749;47.850;9.002;2023-06-14T04:14:40;7.47;;;3.30;;
67965;SDS011;54749;47.850;9.002;2023-06-14T04:17:09;7.32;;;3.20;;
67965;SDS011;54749;47.850;9.002;2023-06-14T04:19:38;7.45;;;3.10;;
67965;SDS011;54749;47.850;9.002;2023-06-14T04:22:05;7.03;;;3.17;;
67965;SDS011;54749;47.850;9.002;2023-06-14T04:24:34;7.53;;;3.45;;
67965;SDS011;54749;47.850;9.002;2023-06-14T04:27:02;11.25;;;3.30;;
67965;SDS011;54749;47.850;9.002;2023-06-14T04:29:30;6.55;;;3.38;;
67965;SDS011;54749;47.850;9.002;2023-06-14T04:32:05;9.75;;;3.83;;
67965;SDS011;54749;47.850;9.002;2023-06-14T04:34:37;8.57;;;3.70;;
67965;SDS011;54749;47.850;9.002;2023-06-14T04:37:07;8.10;;;3.55;;
67965;SDS011;54749;47.850;9.002;2023-06-14T04:39:37;7.45;;;3.58;;
67965;SDS011;54749;47.850;9.002;2023-06-14T04:42:05;9.13;;;3.45;;
67965;SDS011;54749;47.850;9.002;2023-06-14T04:44:34;6.70;;;3.38;;
67965;SDS011;54749;47.850;9.002;2023-06-14T04:47:04;9.93;;;3.50;;
67965;SDS011;54749;47.850;9.002;2023-06-14T04:49:31;7.20;;;3.20;;
67965;SDS011;54749;47.850;9.002;2023-06-14T04:52:00;9.40;;;3.60;;
67965;SDS011;54749;47.850;9.002;2023-06-14T04:54:40;7.30;;;3.70;;
67965;SDS011;54749;47.850;9.002;2023-06-14T04:57:15;8.05;;;3.72;;
67965;SDS011;54749;47.850;9.002;2023-06-14T04:59:46;7.07;;;3.47;;
67965;SDS011;54749;47.850;9.002;2023-06-14T05:02:14;8.45;;;3.60;;
67965;SDS011;54749;47.850;9.002;2023-06-14T05:04:42;6.63;;;3.20;;
67965;SDS011;54749;47.850;9.002;2023-06-14T05:07:10;7.68;;;3.35;;
67965;SDS011;54749;47.850;9.002;2023-06-14T05:09:37;7.63;;;3.42;;
67965;SDS011;54749;47.850;9.002;2023-06-14T05:12:05;7.57;;;3.30;;
67965;SDS011;54749;47.850;9.002;2023-06-14T05:14:34;6.40;;;3.13;;
67965;SDS011;54749;47.850;9.002;2023-06-14T05:17:03;6.00;;;3.28;;
67965;SDS011;54749;47.850;9.002;2023-06-14T05:19:30;6.60;;;3.30;;
67965;SDS011;54749;47.850;9.002;2023-06-14T05:21:57;9.73;;;3.30;;
67965;SDS011;54749;47.850;9.002;2023-06-14T05:24:24;7.67;;;3.40;;
67965;SDS011;54749;47.850;9.002;2023-06-14T05:26:52;5.75;;;3.03;;
67965;SDS011;54749;47.850;9.002;2023-06-14T05:29:19;7.47;;;3.42;;
67965;SDS011;54749;47.850;9.002;2023-06-14T05:31:47;7.50;;;3.15;;
67965;SDS011;54749;47.850;9.002;2023-06-14T05:34:14;8.18;;;3.53;;
67965;SDS011;54749;47.850;9.002;2023-06-14T05:36:41;7.80;;;3.30;;
67965;SDS011;54749;47.850;9.002;2023-06-14T05:39:09;9.60;;;3.78;;
67965;SDS011;54749;47.850;9.002;2023-06-14T05:41:37;5.90;;;3.20;;
67965;SDS011;54749;47.850;9.002;2023-06-14T05:44:04;13.07;;;3.10;;
67965;SDS011;54749;47.850;9.002;2023-06-14T05:46:31;6.72;;;3.40;;
67965;SDS011;54749;47.850;9.002;2023-06-14T05:48:58;7.07;;;3.20;;
67965;SDS011;54749;47.850;9.002;2023-06-14T05:51:26;7.93;;;3.70;;
67965;SDS011;54749;47.850;9.002;2023-06-14T05:53:53;6.88;;;3.38;;
67965;SDS011;54749;47.850;9.002;2023-06-14T05:56:21;6.93;;;2.88;;
67965;SDS011;54749;47.850;9.002;2023-06-14T05:58:49;8.75;;;3.70;;
67965;SDS011;54749;47.850;9.002;2023-06-14T06:01:16;5.77;;;3.30;;
67965;SDS011;54749;47.850;9.002;2023-06-14T06:03:43;6.25;;;3.10;;
67965;SDS011;54749;47.850;9.002;2023-06-14T06:06:13;8.73;;;3.38;;
67965;SDS011;54749;47.850;9.002;2023-06-14T06:08:40;6.22;;;3.50;;
67965;SDS011;54749;47.850;9.002;2023-06-14T06:11:08;6.75;;;3.30;;
67965;SDS011;54749;47.850;9.002;2023-06-14T06:13:35;5.50;;;3.20;;
67965;SDS011;54749;47.850;9.002;2023-06-14T06:16:03;8.65;;;3.30;;
67965;SDS011;54749;47.850;9.002;2023-06-14T06:18:31;7.80;;;3.47;;
67965;SDS011;54749;47.850;9.002;2023-06-14T06:20:58;6.75;;;2.90;;
67965;SDS011;54749;47.850;9.002;2023-06-14T06:23:25;7.93;;;3.20;;
67965;SDS011;54749;47.850;9.002;2023-06-14T06:25:53;6.53;;;3.33;;
67965;SDS011;54749;47.850;9.002;2023-06-14T06:28:23;6.32;;;3.45;;
67965;SDS011;54749;47.850;9.002;2023-06-14T06:30:50;5.88;;;3.00;;
67965;SDS011;54749;47.850;9.002;2023-06-14T06:33:17;6.00;;;3.30;;
67965;SDS011;54749;47.850;9.002;2023-06-14T06:35:44;5.68;;;3.00;;
67965;SDS011;54749;47.850;9.002;2023-06-14T06:38:12;6.87;;;3.00;;
67965;SDS011;54749;47.850;9.002;2023-06-14T06:40:39;5.72;;;3.08;;
67965;SDS011;54749;47.850;9.002;2023-06-14T06:43:06;8.07;;;3.50;;
67965;SDS011;54749;47.850;9.002;2023-06-14T06:45:40;5.90;;;3.05;;
67965;SDS011;54749;47.850;9.002;2023-06-14T06:48:08;6.93;;;3.00;;
67965;SDS011;54749;47.850;9.002;2023-06-14T06:50:37;7.63;;;3.30;;
67965;SDS011;54749;47.850;9.002;2023-06-14T06:53:05;6.55;;;3.30;;
67965;SDS011;54749;47.850;9.002;2023-06-14T06:55:33;5.80;;;3.05;;
67965;SDS011;54749;47.850;9.002;2023-06-14T06:58:00;6.97;;;3.40;;
67965;SDS011;54749;47.850;9.002;2023-06-14T07:00:28;9.23;;;3.30;;
67965;SDS011;54749;47.850;9.002;2023-06-14T07:02:55;6.57;;;2.97;;
67965;SDS011;54749;47.850;9.002;2023-06-14T07:05:24;6.35;;;2.75;;
67965;SDS011;54749;47.850;9.002;2023-06-14T07:07:51;9.50;;;3.00;;
67965;SDS011;54749;47.850;9.002;2023-06-14T07:10:19;6.97;;;2.97;;
67965;SDS011;54749;47.850;9.002;2023-06-14T07:12:46;6.78;;;2.80;;
67965;SDS011;54749;47.850;9.002;2023-06-14T07:15:14;6.73;;;3.07;;
67965;SDS011;54749;47.850;9.002;2023-06-14T07:17:41;6.75;;;3.13;;
67965;SDS011;54749;47.850;9.002;2023-06-14T07:20:10;4.90;;;3.15;;
67965;SDS011;54749;47.850;9.002;2023-06-14T07:22:41;7.65;;;2.80;;
67965;SDS011;54749;47.850;9.002;2023-06-14T07:25:09;9.05;;;3.13;;
67965;SDS011;54749;47.850;9.002;2023-06-14T07:27:42;6.23;;;3.00;;
67965;SDS011;54749;47.850;9.002;2023-06-14T07:30:10;8.18;;;3.10;;
67965;SDS011;54749;47.850;9.002;2023-06-14T07:32:38;9.63;;;3.15;;
67965;SDS011;54749;47.850;9.002;2023-06-14T07:35:06;5.18;;;2.70;;
67965;SDS011;54749;47.850;9.002;2023-06-14T07:37:33;7.15;;;2.80;;
67965;SDS011;54749;47.850;9.002;2023-06-14T07:40:00;7.10;;;3.17;;
67965;SDS011;54749;47.850;9.002;2023-06-14T07:42:31;7.85;;;3.30;;
67965;SDS011;54749;47.850;9.002;2023-06-14T07:44:58;7.82;;;2.80;;
67965;SDS011;54749;47.850;9.002;2023-06-14T07:47:25;8.77;;;2.92;;
67965;SDS011;54749;47.850;9.002;2023-06-14T07:49:53;7.35;;;2.90;;
67965;SDS011;54749;47.850;9.002;2023-06-14T07:52:20;7.47;;;3.00;;
67965;SDS011;54749;47.850;9.002;2023-06-14T07:54:47;6.55;;;2.80;;
67965;SDS011;54749;47.850;9.002;2023-06-14T07:57:15;9.93;;;2.70;;
67965;SDS011;54749;47.850;9.002;2023-06-14T07:59:42;6.32;;;2.75;;
67965;SDS011;54749;47.850;9.002;2023-06-14T08:02:09;6.65;;;3.03;;
67965;SDS011;54749;47.850;9.002;2023-06-14T08:04:36;5.17;;;2.53;;
67965;SDS011;54749;47.850;9.002;2023-06-14T08:07:03;5.40;;;2.90;;
67965;SDS011;54749;47.850;9.002;2023-06-14T08:09:34;5.80;;;2.90;;
67965;SDS011;54749;47.850;9.002;2023-06-14T08:12:04;6.65;;;2.90;;
67965;SDS011;54749;47.850;9.002;2023-06-14T08:14:34;6.90;;;3.00;;
67965;SDS011;54749;47.850;9.002;2023-06-14T08:17:01;6.30;;;2.90;;
67965;SDS011;54749;47.850;9.002;2023-06-14T08:19:29;6.63;;;2.97;;
67965;SDS011;54749;47.850;9.002;2023-06-14T08:21:56;9.25;;;3.33;;
67965;SDS011;54749;47.850;9.002;2023-06-14T08:24:24;7.35;;;3.58;;
67965;SDS011;54749;47.850;9.002;2023-06-14T08:26:51;7.43;;;2.80;;
67965;SDS011;54749;47.850;9.002;2023-06-14T08:29:18;6.13;;;2.80;;
67965;SDS011;54749;47.850;9.002;2023-06-14T08:31:46;7.18;;;3.03;;
67965;SDS011;54749;47.850;9.002;2023-06-14T08:34:14;4.95;;;2.80;;
67965;SDS011;54749;47.850;9.002;2023-06-14T08:36:42;8.88;;;2.97;;
67965;SDS011;54749;47.850;9.002;2023-06-14T08:39:09;5.88;;;3.10;;
67965;SDS011;54749;47.850;9.002;2023-06-14T08:41:36;5.80;;;3.00;;
67965;SDS011;54749;47.850;9.002;2023-06-14T08:44:04;6.20;;;3.10;;
67965;SDS011;54749;47.850;9.002;2023-06-14T08:46:33;7.32;;;2.90;;
67965;SDS011;54749;47.850;9.002;2023-06-14T08:49:01;5.30;;;2.65;;
67965;SDS011;54749;47.850;9.002;2023-06-14T08:51:28;9.55;;;3.13;;
67965;SDS011;54749;47.850;9.002;2023-06-14T08:54:01;8.53;;;3.07;;
67965;SDS011;54749;47.850;9.002;2023-06-14T08:56:30;6.10;;;2.63;;
67965;SDS011;54749;47.850;9.002;2023-06-14T08:58:58;5.43;;;2.80;;
67965;SDS011;54749;47.850;9.002;2023-06-14T09:01:33;5.15;;;2.70;;
67965;SDS011;54749;47.850;9.002;2023-06-14T09:04:01;5.35;;;2.83;;
67965;SDS011;54749;47.850;9.002;2023-06-14T09:06:29;4.53;;;2.60;;
67965;SDS011;54749;47.850;9.002;2023-06-14T09:08:57;4.63;;;2.40;;
67965;SDS011;54749;47.850;9.002;2023-06-14T09:11:24;5.38;;;3.00;;
67965;SDS011;54749;47.850;9.002;2023-06-14T09:13:53;8.23;;;3.20;;
67965;SDS011;54749;47.850;9.002;2023-06-14T09:16:20;5.20;;;2.47;;
67965;SDS011;54749;47.850;9.002;2023-06-14T09:18:47;4.93;;;2.80;;
67965;SDS011;54749;47.850;9.002;2023-06-14T09:21:15;5.20;;;2.72;;
67965;SDS011;54749;47.850;9.002;2023-06-14T09:23:44;5.15;;;2.65;;
67965;SDS011;54749;47.850;9.002;2023-06-14T09:26:13;5.43;;;3.10;;
67965;SDS011;54749;47.850;9.002;2023-06-14T09:31:13;7.07;;;2.60;;
67965;SDS011;54749;47.850;9.002;2023-06-14T09:33:46;8.25;;;2.97;;
67965;SDS011;54749;47.850;9.002;2023-06-14T09:36:23;11.52;;;3.13;;
67965;SDS011;54749;47.850;9.002;2023-06-14T09:38:55;4.53;;;2.70;;
67965;SDS011;54749;47.850;9.002;2023-06-14T09:41:30;5.78;;;2.75;;
67965;SDS011;54749;47.850;9.002;2023-06-14T09:44:05;6.40;;;3.00;;
67965;SDS011;54749;47.850;9.002;2023-06-14T09:46:39;6.07;;;3.40;;
67965;SDS011;54749;47.850;9.002;2023-06-14T09:49:08;6.38;;;3.05;;
67965;SDS011;54749;47.850;9.002;2023-06-14T09:51:36;6.50;;;3.13;;
67965;SDS011;54749;47.850;9.002;2023-06-14T09:54:15;8.35;;;3.30;;
67965;SDS011;54749;47.850;9.002;2023-06-14T09:56:46;8.27;;;3.50;;
67965;SDS011;54749;47.850;9.002;2023-06-14T09:59:14;6.80;;;3.47;;
67965;SDS011;54749;47.850;9.002;2023-06-14T10:01:46;6.00;;;3.45;;
67965;SDS011;54749;47.850;9.002;2023-06-14T10:04:15;6.82;;;3.58;;
67965;SDS011;54749;47.850;9.002;2023-06-14T10:06:46;6.82;;;3.50;;
67965;SDS011;54749;47.850;9.002;2023-06-14T10:09:14;7.47;;;3.10;;
67965;SDS011;54749;47.850;9.002;2023-06-14T10:11:41;8.48;;;2.95;;
67965;SDS011;54749;47.850;9.002;2023-06-14T10:14:12;6.57;;;3.28;;
67965;SDS011;54749;47.850;9.002;2023-06-14T10:25:12;7.18;;;3.28;;
67965;SDS011;54749;47.850;9.002;2023-06-14T10:27:41;5.63;;;3.25;;
67965;SDS011;54749;47.850;9.002;2023-06-14T10:30:14;8.35;;;3.20;;
67965;SDS011;54749;47.850;9.002;2023-06-14T10:35:37;6.50;;;3.13;;
67965;SDS011;54749;47.850;9.002;2023-06-14T10:38:11;6.10;;;3.28;;
67965;SDS011;54749;47.850;9.002;2023-06-14T10:40:39;7.90;;;3.53;;
67965;SDS011;54749;47.850;9.002;2023-06-14T10:43:21;6.75;;;3.10;;
67965;SDS011;54749;47.850;9.002;2023-06-14T10:48:51;6.80;;;3.40;;
67965;SDS011;54749;47.850;9.002;2023-06-14T10:51:24;5.82;;;2.67;;
67965;SDS011;54749;47.850;9.002;2023-06-14T10:53:53;15.82;;;3.55;;
67965;SDS011;54749;47.850;9.002;2023-06-14T10:56:27;6.47;;;3.20;;
67965;SDS011;54749;47.850;9.002;2023-06-14T10:58:55;6.68;;;3.20;;
67965;SDS011;54749;47.850;9.002;2023-06-14T11:01:38;5.60;;;3.10;;
67965;SDS011;54749;47.850;9.002;2023-06-14T11:04:12;6.03;;;2.83;;
67965;SDS011;54749;47.850;9.002;2023-06-14T11:06:47;5.63;;;2.80;;
67965;SDS011;54749;47.850;9.002;2023-06-14T11:09:28;13.13;;;3.42;;
67965;SDS011;54749;47.850;9.002;2023-06-14T11:12:05;6.30;;;3.08;;
67965;SDS011;54749;47.850;9.002;2023-06-14T11:14:37;5.90;;;3.30;;
67965;SDS011;54749;47.850;9.002;2023-06-14T11:17:05;7.50;;;3.25;;
67965;SDS011;54749;47.850;9.002;2023-06-14T11:19:33;7.25;;;3.40;;
67965;SDS011;54749;47.850;9.002;2023-06-14T11:22:00;6.38;;;3.30;;
67965;SDS011;54749;47.850;9.002;2023-06-14T11:24:27;7.47;;;3.42;;
67965;SDS011;54749;47.850;9.002;2023-06-14T11:26:55;6.73;;;3.50;;
67965;SDS011;54749;47.850;9.002;2023-06-14T11:29:23;5.63;;;3.10;;
67965;SDS011;54749;47.850;9.002;2023-06-14T11:31:51;5.47;;;3.35;;
67965;SDS011;54749;47.850;9.002;2023-06-14T11:34:18;11.43;;;3.40;;
67965;SDS011;54749;47.850;9.002;2023-06-14T11:36:47;6.40;;;3.30;;
67965;SDS011;54749;47.850;9.002;2023-06-14T11:39:14;5.13;;;3.10;;
67965;SDS011;54749;47.850;9.002;2023-06-14T11:41:42;5.68;;;3.00;;
67965;SDS011;54749;47.850;9.002;2023-06-14T11:44:11;6.03;;;3.30;;
67965;SDS011;54749;47.850;9.002;2023-06-14T11:46:39;7.38;;;3.20;;
67965;SDS011;54749;47.850;9.002;2023-06-14T11:49:06;5.22;;;3.00;;
67965;SDS011;54749;47.850;9.002;2023-06-14T11:51:34;7.00;;;3.30;;
67965;SDS011;54749;47.850;9.002;2023-06-14T11:54:02;9.60;;;3.10;;
67965;SDS011;54749;47.850;9.002;2023-06-14T11:56:31;7.80;;;3.78;;
67965;SDS011;54749;47.850;9.002;2023-06-14T11:58:59;7.80;;;3.30;;
67965;SDS011;54749;47.850;9.002;2023-06-14T12:01:29;7.15;;;3.35;;
67965;SDS011;54749;47.850;9.002;2023-06-14T12:03:56;6.40;;;3.13;;
67965;SDS011;54749;47.850;9.002;2023-06-14T12:06:27;7.50;;;3.40;;
67965;SDS011;54749;47.850;9.002;2023-06-14T12:08:58;5.78;;;2.92;;
67965;SDS011;54749;47.850;9.002;2023-06-14T12:11:33;7.70;;;3.22;;
67965;SDS011;54749;47.850;9.002;2023-06-14T12:14:02;9.43;;;3.30;;
67965;SDS011;54749;47.850;9.002;2023-06-14T12:16:32;5.87;;;3.30;;
67965;SDS011;54749;47.850;9.002;2023-06-14T12:19:00;6.57;;;2.92;;
67965;SDS011;54749;47.850;9.002;2023-06-14T12:21:35;6.80;;;3.47;;
67965;SDS011;54749;47.850;9.002;2023-06-14T12:24:05;7.03;;;3.67;;
67965;SDS011;54749;47.850;9.002;2023-06-14T12:26:37;6.63;;;3.20;;
67965;SDS011;54749;47.850;9.002;2023-06-14T12:29:05;7.67;;;3.10;;
67965;SDS011;54749;47.850;9.002;2023-06-14T12:31:33;6.60;;;3.13;;
67965;SDS011;54749;47.850;9.002;2023-06-14T12:34:00;7.13;;;3.42;;
67965;SDS011;54749;47.850;9.002;2023-06-14T12:36:28;6.75;;;3.00;;
67965;SDS011;54749;47.850;9.002;2023-06-14T12:38:55;8.23;;;3.38;;
67965;SDS011;54749;47.850;9.002;2023-06-14T12:41:22;7.63;;;3.60;;
67965;SDS011;54749;47.850;9.002;2023-06-14T12:43:50;7.65;;;3.88;;
67965;SDS011;54749;47.850;9.002;2023-06-14T12:46:17;8.45;;;3.17;;
67965;SDS011;54749;47.850;9.002;2023-06-14T12:48:45;12.73;;;4.07;;
67965;SDS011;54749;47.850;9.002;2023-06-14T12:51:12;8.23;;;3.22;;
67965;SDS011;54749;47.850;9.002;2023-06-14T12:53:39;8.67;;;3.73;;
67965;SDS011;54749;47.850;9.002;2023-06-14T12:56:07;7.40;;;3.35;;
67965;SDS011;54749;47.850;9.002;2023-06-14T12:58:34;6.18;;;3.40;;
67965;SDS011;54749;47.850;9.002;2023-06-14T13:01:02;6.38;;;3.42;;
67965;SDS011;54749;47.850;9.002;2023-06-14T13:03:29;7.40;;;3.45;;
67965;SDS011;54749;47.850;9.002;2023-06-14T13:05:57;7.00;;;3.50;;
67965;SDS011;54749;47.850;9.002;2023-06-14T13:08:24;8.45;;;3.30;;
67965;SDS011;54749;47.850;9.002;2023-06-14T13:10:51;7.10;;;3.13;;
67965;SDS011;54749;47.850;9.002;2023-06-14T13:13:18;7.30;;;3.42;;
67965;SDS011;54749;47.850;9.002;2023-06-14T13:15:46;7.25;;;3.47;;
67965;SDS011;54749;47.850;9.002;2023-06-14T13:18:13;7.47;;;3.50;;
67965;SDS011;54749;47.850;9.002;2023-06-14T13:20:41;6.80;;;3.40;;
67965;SDS011;54749;47.850;9.002;2023-06-14T13:23:08;7.82;;;3.58;;
67965;SDS011;54749;47.850;9.002;2023-06-14T13:25:37;5.85;;;3.28;;
67965;SDS011;54749;47.850;9.002;2023-06-14T13:28:04;6.82;;;3.53;;
67965;SDS011;54749;47.850;9.002;2023-06-14T13:30:32;8.40;;;3.63;;
67965;SDS011;54749;47.850;9.002;2023-06-14T13:33:00;6.78;;;3.75;;
67965;SDS011;54749;47.850;9.002;2023-06-14T13:35:27;8.88;;;3.75;;
67965;SDS011;54749;47.850;9.002;2023-06-14T13:37:54;11.30;;;3.85;;
67965;SDS011;54749;47.850;9.002;2023-06-14T13:40:22;8.55;;;4.35;;
67965;SDS011;54749;47.850;9.002;2023-06-14T13:42:49;7.23;;;4.03;;
67965;SDS011;54749;47.850;9.002;2023-06-14T13:45:16;7.20;;;3.53;;
67965;SDS011;54749;47.850;9.002;2023-06-14T13:47:44;10.48;;;4.15;;
67965;SDS011;54749;47.850;9.002;2023-06-14T13:50:12;8.40;;;3.72;;
67965;SDS011;54749;47.850;9.002;2023-06-14T13:52:40;6.18;;;3.53;;
67965;SDS011;54749;47.850;9.002;2023-06-14T13:55:07;6.30;;;3.70;;
67965;SDS011;54749;47.850;9.002;2023-06-14T13:57:34;7.63;;;3.63;;
67965;SDS011;54749;47.850;9.002;2023-06-14T14:00:02;7.50;;;3.50;;
67965;SDS011;54749;47.850;9.002;2023-06-14T14:02:37;5.95;;;3.15;;
67965;SDS011;54749;47.850;9.002;2023-06-14T14:05:07;8.38;;;3.88;;
67965;SDS011;54749;47.850;9.002;2023-06-14T14:07:35;6.30;;;3.70;;
67965;SDS011;54749;47.850;9.002;2023-06-14T14:10:03;8.05;;;3.72;;
67965;SDS011;54749;47.850;9.002;2023-06-14T14:12:30;7.78;;;4.28;;
67965;SDS011;54749;47.850;9.002;2023-06-14T14:14:58;7.70;;;4.00;;
67965;SDS011;54749;47.850;9.002;2023-06-14T14:17:25;8.98;;;3.80;;
67965;SDS011;54749;47.850;9.002;2023-06-14T14:19:53;8.17;;;4.27;;
67965;SDS011;54749;47.850;9.002;2023-06-14T14:22:23;7.60;;;3.88;;
67965;SDS011;54749;47.850;9.002;2023-06-14T14:24:51;7.90;;;4.10;;
67965;SDS011;54749;47.850;9.002;2023-06-14T14:27:18;7.80;;;4.00;;
67965;SDS011;54749;47.850;9.002;2023-06-14T14:29:45;7.82;;;3.90;;
67965;SDS011;54749;47.850;9.002;2023-06-14T14:32:12;8.70;;;4.70;;
67965;SDS011;54749;47.850;9.002;2023-06-14T14:34:41;8.93;;;4.18;;
67965;SDS011;54749;47.850;9.002;2023-06-14T14:37:08;8.65;;;4.15;;
67965;SDS011;54749;47.850;9.002;2023-06-14T14:39:36;6.90;;;3.67;;
67965;SDS011;54749;47.850;9.002;2023-06-14T14:42:03;7.10;;;3.78;;
67965;SDS011;54749;47.850;9.002;2023-06-14T14:44:33;7.43;;;4.20;;
67965;SDS011;54749;47.850;9.002;2023-06-14T14:47:00;7.32;;;4.05;;
67965;SDS011;54749;47.850;9.002;2023-06-14T14:49:28;6.53;;;4.13;;
67965;SDS011;54749;47.850;9.002;2023-06-14T14:51:55;11.75;;;4.25;;
67965;SDS011;54749;47.850;9.002;2023-06-14T14:54:31;6.75;;;3.42;;
67965;SDS011;54749;47.850;9.002;2023-06-14T14:56:58;6.23;;;3.83;;
67965;SDS011;54749;47.850;9.002;2023-06-14T14:59:25;9.13;;;3.92;;
67965;SDS011;54749;47.850;9.002;2023-06-14T15:01:52;8.13;;;3.95;;
67965;SDS011;54749;47.850;9.002;2023-06-14T15:04:20;6.63;;;3.60;;
67965;SDS011;54749;47.850;9.002;2023-06-14T15:06:47;7.90;;;4.43;;
67965;SDS011;54749;47.850;9.002;2023-06-14T15:09:14;7.23;;;3.60;;
67965;SDS011;54749;47.850;9.002;2023-06-14T15:11:41;8.30;;;3.80;;
67965;SDS011;54749;47.850;9.002;2023-06-14T15:14:11;6.55;;;3.97;;